North Creek, Australia

9:13 PM AEDT on December 17, 2017 (GMT +1100)
Ballina | | Change Station

Elev 20 ft 28.87 °S, 153.55 °E | Updated 10 seconds ago

Partly Cloudy
Partly Cloudy
74.7 °F
Feels Like 75 °F
N
0.0
Wind Variable Wind from ESE
Gusts 3.0 mph

Today
High -- | Low -- °F
--% Chance of Precip.
Yesterday
High -- | Low -- °F
Precip. -- in
Pressure 30.01 in
Visibility 6.2 miles
Clouds Scattered Clouds 2600 ft
Mostly Cloudy 3500 ft
Overcast 4300 ft
Heat Index 75 °F
Dew Point 67 °F
Humidity 78%
Rainfall 0.00 in
Snow Depth Not available.
5:42 AM 7:41 PM
Waning Crescent, 1% visible
METAR YBCG 171000Z AUTO 06008KT 9999 // SCT026 BKN035 OVC043 25/18 Q1016
Pressure 30.01 in
Visibility 6.2 miles
Clouds Scattered Clouds 2600 ft
Mostly Cloudy 3500 ft
Overcast 4300 ft
Heat Index 75 °F
Dew Point 67 °F
Humidity 78%
Rainfall 0.00 in
Snow Depth Not available.
5:42 AM 7:41 PM
Waning Crescent, 1% visible
METAR YBCG 171000Z AUTO 06008KT 9999 // SCT026 BKN035 OVC043 25/18 Q1016

Get Severe Weather Alerts

Thanks for signing up!

Be on the lookout for a verification email in your inbox.

You'll start receiving the daily forecast at 6 AM.

×

10-Day Weather Forecast

×

Almanac

Astronomy

Dec. 17, 2017 Rise Set
Actual Time
Civil Twilight
Nautical Twilight
Astronomical Twilight
Moon
Length of Visible Light
Length of Day
Tomorrow will be .
, % of the Moon is Illuminated

Today's Extremes

Country Highs Country Lows

Community

WunderPhotos

Category 6

Welcome to Category 6. This is the collective home for Weather Underground's featured writeups by Dr. Jeff Masters (right), Bob Henson (left), Chris Burt, and other regular contributors.

Nearby

Air Quality

  Air Quality AQ Index Pollutant
Not available.

Snow Depth

Station Depth Elevation

Earthquake Activity

City Distance Mag. Time & Date
Minimum magnitude displayed is 2.5.

Coastal Water Temperatures

Place Temperature

Stations

Nearby Weather Stations

Station Location Temp. Windchill Dew Point Humidity Wind Precip. Elev Updated Type